KZ-0010 weather

Iliysk North Airport
Iliysk, Almaty Region, Kazakhstan

Public forecast

Using degrees Celsius for public forecast. Weather courtesy of forecast.io.

Closest aviation weather report (METAR) to Iliysk North Airport

Closest report is Almaty Airport, 39.0 nm (72.3 km) S. Retrieved 2020/02/24 05:00 UTC (16 minutes ago):

UAAA 240500Z VRB01MPS 9999 SCT100 BKN200 04/00 Q1020 R88/65D NOSIG

Closest aviation forecast (TAF) to Iliysk North Airport

Closest forecast is Almaty Airport, 39.0 nm (72.3 km) S. Retrieved 2020-02-24 00:21 UTC (5 hours ago):

TAF UAAA 232300Z 2400/2424 20003G08MPS 3100 BR FU BKN011CB BKN100 TX09/2409Z TNM00/2401Z TEMPO 2400/2404 26003MPS 0800 FZFG OVC005 BECMG 2406/2407 04003G08MPS 9999 NSW BECMG 2412/2413 20003MPS 3100 BR FU TEMPO 2414/2424 0500 -SHRA FZFG BKN003 OVC011CB